sensor_id;sensor_type;location;lat;lon;timestamp;P1;durP1;ratioP1;P2;durP2;ratioP2
11078;SDS011;5592;49.234;7.268;2022-10-26T00:01:06;7.07;;;4.63;;
11078;SDS011;5592;49.234;7.268;2022-10-26T00:03:34;6.73;;;5.10;;
11078;SDS011;5592;49.234;7.268;2022-10-26T00:06:01;7.20;;;5.47;;
11078;SDS011;5592;49.234;7.268;2022-10-26T00:08:38;13.73;;;5.63;;
11078;SDS011;5592;49.234;7.268;2022-10-26T00:11:04;13.87;;;5.90;;
11078;SDS011;5592;49.234;7.268;2022-10-26T00:13:30;7.97;;;5.17;;
11078;SDS011;5592;49.234;7.268;2022-10-26T00:15:56;14.40;;;4.97;;
11078;SDS011;5592;49.234;7.268;2022-10-26T00:18:22;14.80;;;6.07;;
11078;SDS011;5592;49.234;7.268;2022-10-26T00:20:48;12.77;;;5.50;;
11078;SDS011;5592;49.234;7.268;2022-10-26T00:23:14;13.80;;;5.33;;
11078;SDS011;5592;49.234;7.268;2022-10-26T00:25:40;13.03;;;5.10;;
11078;SDS011;5592;49.234;7.268;2022-10-26T00:28:06;15.97;;;4.73;;
11078;SDS011;5592;49.234;7.268;2022-10-26T00:30:31;6.40;;;5.50;;
11078;SDS011;5592;49.234;7.268;2022-10-26T00:32:57;8.30;;;5.20;;
11078;SDS011;5592;49.234;7.268;2022-10-26T00:35:23;12.53;;;5.07;;
11078;SDS011;5592;49.234;7.268;2022-10-26T00:37:52;6.33;;;4.93;;
11078;SDS011;5592;49.234;7.268;2022-10-26T00:40:19;9.50;;;5.53;;
11078;SDS011;5592;49.234;7.268;2022-10-26T00:42:44;13.07;;;5.20;;
11078;SDS011;5592;49.234;7.268;2022-10-26T00:45:20;13.50;;;5.50;;
11078;SDS011;5592;49.234;7.268;2022-10-26T00:47:58;8.60;;;5.20;;
11078;SDS011;5592;49.234;7.268;2022-10-26T00:50:36;8.63;;;4.83;;
11078;SDS011;5592;49.234;7.268;2022-10-26T00:53:06;13.03;;;5.30;;
11078;SDS011;5592;49.234;7.268;2022-10-26T00:55:34;12.93;;;5.07;;
11078;SDS011;5592;49.234;7.268;2022-10-26T00:58:03;9.97;;;4.33;;
11078;SDS011;5592;49.234;7.268;2022-10-26T01:00:31;9.63;;;5.10;;
11078;SDS011;5592;49.234;7.268;2022-10-26T01:02:58;9.53;;;4.90;;
11078;SDS011;5592;49.234;7.268;2022-10-26T01:05:26;11.50;;;4.53;;
11078;SDS011;5592;49.234;7.268;2022-10-26T01:07:53;13.00;;;5.17;;
11078;SDS011;5592;49.234;7.268;2022-10-26T01:10:19;15.17;;;5.10;;
11078;SDS011;5592;49.234;7.268;2022-10-26T01:12:45;10.90;;;4.33;;
11078;SDS011;5592;49.234;7.268;2022-10-26T01:15:11;5.63;;;3.93;;
11078;SDS011;5592;49.234;7.268;2022-10-26T01:22:50;8.97;;;4.53;;
11078;SDS011;5592;49.234;7.268;2022-10-26T01:32:09;6.90;;;3.80;;
11078;SDS011;5592;49.234;7.268;2022-10-26T01:34:32;8.50;;;4.40;;
11078;SDS011;5592;49.234;7.268;2022-10-26T01:37:11;7.57;;;4.10;;
11078;SDS011;5592;49.234;7.268;2022-10-26T01:39:51;9.53;;;4.60;;
11078;SDS011;5592;49.234;7.268;2022-10-26T01:42:22;11.20;;;4.20;;
11078;SDS011;5592;49.234;7.268;2022-10-26T01:44:56;8.73;;;5.03;;
11078;SDS011;5592;49.234;7.268;2022-10-26T01:47:30;15.70;;;4.40;;
11078;SDS011;5592;49.234;7.268;2022-10-26T01:49:58;19.17;;;4.30;;
11078;SDS011;5592;49.234;7.268;2022-10-26T01:52:24;12.13;;;4.97;;
11078;SDS011;5592;49.234;7.268;2022-10-26T01:54:58;12.73;;;4.57;;
11078;SDS011;5592;49.234;7.268;2022-10-26T01:57:50;8.20;;;4.30;;
11078;SDS011;5592;49.234;7.268;2022-10-26T02:00:17;16.43;;;5.23;;
11078;SDS011;5592;49.234;7.268;2022-10-26T02:05:49;13.67;;;4.17;;
11078;SDS011;5592;49.234;7.268;2022-10-26T02:08:49;10.33;;;4.00;;
11078;SDS011;5592;49.234;7.268;2022-10-26T02:11:41;10.67;;;4.50;;
11078;SDS011;5592;49.234;7.268;2022-10-26T02:17:04;10.23;;;4.30;;
11078;SDS011;5592;49.234;7.268;2022-10-26T02:19:51;11.27;;;4.10;;
11078;SDS011;5592;49.234;7.268;2022-10-26T02:22:33;10.77;;;4.87;;
11078;SDS011;5592;49.234;7.268;2022-10-26T02:25:15;16.53;;;5.13;;
11078;SDS011;5592;49.234;7.268;2022-10-26T02:27:46;11.37;;;4.93;;
11078;SDS011;5592;49.234;7.268;2022-10-26T02:30:17;10.60;;;4.40;;
11078;SDS011;5592;49.234;7.268;2022-10-26T02:32:44;10.00;;;4.67;;
11078;SDS011;5592;49.234;7.268;2022-10-26T02:35:16;8.90;;;4.70;;
11078;SDS011;5592;49.234;7.268;2022-10-26T02:37:47;32.97;;;4.60;;
11078;SDS011;5592;49.234;7.268;2022-10-26T02:40:15;9.43;;;4.30;;
11078;SDS011;5592;49.234;7.268;2022-10-26T02:42:45;6.40;;;4.20;;
11078;SDS011;5592;49.234;7.268;2022-10-26T02:45:13;13.07;;;4.60;;
11078;SDS011;5592;49.234;7.268;2022-10-26T02:47:43;7.10;;;4.43;;
11078;SDS011;5592;49.234;7.268;2022-10-26T02:50:08;7.67;;;4.27;;
11078;SDS011;5592;49.234;7.268;2022-10-26T02:53:20;6.40;;;4.77;;
11078;SDS011;5592;49.234;7.268;2022-10-26T02:55:33;8.47;;;3.87;;
11078;SDS011;5592;49.234;7.268;2022-10-26T02:58:10;12.50;;;4.33;;
11078;SDS011;5592;49.234;7.268;2022-10-26T03:00:41;7.23;;;4.17;;
11078;SDS011;5592;49.234;7.268;2022-10-26T03:03:08;8.80;;;3.60;;
11078;SDS011;5592;49.234;7.268;2022-10-26T03:05:34;9.33;;;4.37;;
11078;SDS011;5592;49.234;7.268;2022-10-26T03:08:01;8.70;;;4.40;;
11078;SDS011;5592;49.234;7.268;2022-10-26T03:10:26;10.47;;;4.00;;
11078;SDS011;5592;49.234;7.268;2022-10-26T03:12:52;5.10;;;3.70;;
11078;SDS011;5592;49.234;7.268;2022-10-26T03:15:18;5.57;;;4.17;;
11078;SDS011;5592;49.234;7.268;2022-10-26T03:17:44;14.23;;;5.00;;
11078;SDS011;5592;49.234;7.268;2022-10-26T03:20:10;9.50;;;4.50;;
11078;SDS011;5592;49.234;7.268;2022-10-26T03:22:36;10.63;;;4.03;;
11078;SDS011;5592;49.234;7.268;2022-10-26T03:25:01;10.60;;;3.87;;
11078;SDS011;5592;49.234;7.268;2022-10-26T03:27:27;8.37;;;4.77;;
11078;SDS011;5592;49.234;7.268;2022-10-26T03:29:52;7.80;;;4.87;;
11078;SDS011;5592;49.234;7.268;2022-10-26T03:32:21;9.10;;;4.60;;
11078;SDS011;5592;49.234;7.268;2022-10-26T03:34:47;7.93;;;4.40;;
11078;SDS011;5592;49.234;7.268;2022-10-26T03:37:12;8.63;;;3.93;;
11078;SDS011;5592;49.234;7.268;2022-10-26T03:39:38;9.40;;;4.67;;
11078;SDS011;5592;49.234;7.268;2022-10-26T03:42:03;7.47;;;4.00;;
11078;SDS011;5592;49.234;7.268;2022-10-26T03:44:29;10.93;;;4.00;;
11078;SDS011;5592;49.234;7.268;2022-10-26T03:46:55;8.73;;;4.27;;
11078;SDS011;5592;49.234;7.268;2022-10-26T03:49:20;6.90;;;4.93;;
11078;SDS011;5592;49.234;7.268;2022-10-26T03:51:46;12.07;;;5.33;;
11078;SDS011;5592;49.234;7.268;2022-10-26T03:54:11;11.73;;;5.00;;
11078;SDS011;5592;49.234;7.268;2022-10-26T03:56:37;17.50;;;4.33;;
11078;SDS011;5592;49.234;7.268;2022-10-26T03:59:02;10.63;;;4.80;;
11078;SDS011;5592;49.234;7.268;2022-10-26T04:01:28;14.70;;;4.80;;
11078;SDS011;5592;49.234;7.268;2022-10-26T04:03:54;9.97;;;4.63;;
11078;SDS011;5592;49.234;7.268;2022-10-26T04:06:19;13.60;;;5.00;;
11078;SDS011;5592;49.234;7.268;2022-10-26T04:08:45;13.27;;;5.00;;
11078;SDS011;5592;49.234;7.268;2022-10-26T04:11:10;9.47;;;5.00;;
11078;SDS011;5592;49.234;7.268;2022-10-26T04:13:36;11.80;;;4.00;;
11078;SDS011;5592;49.234;7.268;2022-10-26T04:16:02;11.03;;;4.50;;
11078;SDS011;5592;49.234;7.268;2022-10-26T04:18:28;7.83;;;4.20;;
11078;SDS011;5592;49.234;7.268;2022-10-26T04:20:53;7.30;;;4.40;;
11078;SDS011;5592;49.234;7.268;2022-10-26T04:23:19;11.80;;;4.87;;
11078;SDS011;5592;49.234;7.268;2022-10-26T04:25:45;11.90;;;4.63;;
11078;SDS011;5592;49.234;7.268;2022-10-26T04:28:11;20.97;;;5.47;;
11078;SDS011;5592;49.234;7.268;2022-10-26T04:30:37;6.87;;;4.17;;
11078;SDS011;5592;49.234;7.268;2022-10-26T04:33:04;10.10;;;4.00;;
11078;SDS011;5592;49.234;7.268;2022-10-26T04:35:30;10.57;;;5.13;;
11078;SDS011;5592;49.234;7.268;2022-10-26T04:37:56;5.53;;;3.40;;
11078;SDS011;5592;49.234;7.268;2022-10-26T04:40:26;9.00;;;3.70;;
11078;SDS011;5592;49.234;7.268;2022-10-26T04:42:53;11.23;;;4.57;;
11078;SDS011;5592;49.234;7.268;2022-10-26T04:45:18;6.73;;;3.80;;
11078;SDS011;5592;49.234;7.268;2022-10-26T04:47:47;7.93;;;4.03;;
11078;SDS011;5592;49.234;7.268;2022-10-26T04:50:22;5.33;;;3.70;;
11078;SDS011;5592;49.234;7.268;2022-10-26T04:52:51;10.47;;;4.33;;
11078;SDS011;5592;49.234;7.268;2022-10-26T04:55:17;8.63;;;4.20;;
11078;SDS011;5592;49.234;7.268;2022-10-26T04:57:43;7.93;;;4.00;;
11078;SDS011;5592;49.234;7.268;2022-10-26T05:00:09;8.03;;;4.07;;
11078;SDS011;5592;49.234;7.268;2022-10-26T05:02:35;12.00;;;4.90;;
11078;SDS011;5592;49.234;7.268;2022-10-26T05:05:01;5.70;;;3.50;;
11078;SDS011;5592;49.234;7.268;2022-10-26T05:07:29;10.73;;;4.70;;
11078;SDS011;5592;49.234;7.268;2022-10-26T05:09:55;10.20;;;4.30;;
11078;SDS011;5592;49.234;7.268;2022-10-26T05:12:20;6.17;;;4.70;;
11078;SDS011;5592;49.234;7.268;2022-10-26T05:14:46;8.13;;;4.70;;
11078;SDS011;5592;49.234;7.268;2022-10-26T05:17:12;8.03;;;4.60;;
11078;SDS011;5592;49.234;7.268;2022-10-26T05:19:37;15.07;;;4.50;;
11078;SDS011;5592;49.234;7.268;2022-10-26T05:22:03;16.03;;;4.70;;
11078;SDS011;5592;49.234;7.268;2022-10-26T05:24:29;4.40;;;3.47;;
11078;SDS011;5592;49.234;7.268;2022-10-26T05:26:54;14.30;;;4.67;;
11078;SDS011;5592;49.234;7.268;2022-10-26T05:29:20;9.90;;;4.87;;
11078;SDS011;5592;49.234;7.268;2022-10-26T05:31:45;10.93;;;4.57;;
11078;SDS011;5592;49.234;7.268;2022-10-26T05:34:11;9.03;;;4.60;;
11078;SDS011;5592;49.234;7.268;2022-10-26T05:36:36;6.30;;;4.17;;
11078;SDS011;5592;49.234;7.268;2022-10-26T05:39:02;12.40;;;4.63;;
11078;SDS011;5592;49.234;7.268;2022-10-26T05:41:28;12.63;;;4.30;;
11078;SDS011;5592;49.234;7.268;2022-10-26T05:43:53;8.60;;;3.60;;
11078;SDS011;5592;49.234;7.268;2022-10-26T05:46:19;9.20;;;3.90;;
11078;SDS011;5592;49.234;7.268;2022-10-26T05:48:45;9.80;;;3.50;;
11078;SDS011;5592;49.234;7.268;2022-10-26T05:51:10;10.00;;;4.10;;
11078;SDS011;5592;49.234;7.268;2022-10-26T05:53:36;5.23;;;4.13;;
11078;SDS011;5592;49.234;7.268;2022-10-26T05:56:02;8.63;;;4.00;;
11078;SDS011;5592;49.234;7.268;2022-10-26T05:58:43;5.63;;;3.70;;
11078;SDS011;5592;49.234;7.268;2022-10-26T06:01:15;9.83;;;4.10;;
11078;SDS011;5592;49.234;7.268;2022-10-26T06:03:57;13.10;;;4.67;;
11078;SDS011;5592;49.234;7.268;2022-10-26T06:06:50;15.80;;;3.63;;
11078;SDS011;5592;49.234;7.268;2022-10-26T06:09:18;8.50;;;3.73;;
11078;SDS011;5592;49.234;7.268;2022-10-26T06:11:45;8.10;;;3.60;;
11078;SDS011;5592;49.234;7.268;2022-10-26T06:14:10;13.50;;;4.57;;
11078;SDS011;5592;49.234;7.268;2022-10-26T06:30:08;5.10;;;3.57;;
11078;SDS011;5592;49.234;7.268;2022-10-26T06:32:35;6.23;;;4.10;;
11078;SDS011;5592;49.234;7.268;2022-10-26T06:37:41;13.27;;;4.00;;
11078;SDS011;5592;49.234;7.268;2022-10-26T06:40:08;5.67;;;3.07;;
11078;SDS011;5592;49.234;7.268;2022-10-26T06:42:36;10.43;;;3.80;;
11078;SDS011;5592;49.234;7.268;2022-10-26T06:45:02;15.57;;;4.20;;
11078;SDS011;5592;49.234;7.268;2022-10-26T06:47:31;8.00;;;3.60;;
11078;SDS011;5592;49.234;7.268;2022-10-26T06:53:09;6.40;;;4.03;;
11078;SDS011;5592;49.234;7.268;2022-10-26T06:55:44;5.47;;;3.40;;
11078;SDS011;5592;49.234;7.268;2022-10-26T06:58:13;13.33;;;3.93;;
11078;SDS011;5592;49.234;7.268;2022-10-26T07:00:42;6.20;;;3.57;;
11078;SDS011;5592;49.234;7.268;2022-10-26T07:03:09;7.13;;;2.67;;
11078;SDS011;5592;49.234;7.268;2022-10-26T07:05:34;6.43;;;3.17;;
11078;SDS011;5592;49.234;7.268;2022-10-26T07:08:00;3.80;;;2.83;;
11078;SDS011;5592;49.234;7.268;2022-10-26T07:10:26;13.00;;;3.20;;
11078;SDS011;5592;49.234;7.268;2022-10-26T07:12:51;7.30;;;2.80;;
11078;SDS011;5592;49.234;7.268;2022-10-26T07:15:17;5.27;;;3.00;;
11078;SDS011;5592;49.234;7.268;2022-10-26T07:17:43;4.00;;;2.80;;
11078;SDS011;5592;49.234;7.268;2022-10-26T07:20:12;5.80;;;3.77;;
11078;SDS011;5592;49.234;7.268;2022-10-26T07:22:38;5.47;;;2.80;;
11078;SDS011;5592;49.234;7.268;2022-10-26T07:25:04;9.40;;;2.60;;
11078;SDS011;5592;49.234;7.268;2022-10-26T07:27:32;6.30;;;3.20;;
11078;SDS011;5592;49.234;7.268;2022-10-26T07:30:00;6.23;;;3.17;;
11078;SDS011;5592;49.234;7.268;2022-10-26T07:32:26;7.57;;;2.90;;
11078;SDS011;5592;49.234;7.268;2022-10-26T07:34:52;6.03;;;2.57;;
11078;SDS011;5592;49.234;7.268;2022-10-26T07:37:17;3.80;;;2.80;;
11078;SDS011;5592;49.234;7.268;2022-10-26T07:39:43;3.50;;;2.70;;
11078;SDS011;5592;49.234;7.268;2022-10-26T07:42:09;5.30;;;2.53;;
11078;SDS011;5592;49.234;7.268;2022-10-26T07:44:34;7.50;;;2.80;;
11078;SDS011;5592;49.234;7.268;2022-10-26T07:47:00;10.20;;;3.43;;
11078;SDS011;5592;49.234;7.268;2022-10-26T07:49:25;5.67;;;2.83;;
11078;SDS011;5592;49.234;7.268;2022-10-26T07:51:51;10.03;;;2.90;;
11078;SDS011;5592;49.234;7.268;2022-10-26T07:54:17;4.63;;;2.83;;
11078;SDS011;5592;49.234;7.268;2022-10-26T07:56:42;13.00;;;2.90;;
11078;SDS011;5592;49.234;7.268;2022-10-26T07:59:10;5.20;;;2.77;;
11078;SDS011;5592;49.234;7.268;2022-10-26T08:01:37;4.77;;;2.80;;
11078;SDS011;5592;49.234;7.268;2022-10-26T08:04:02;6.70;;;2.50;;
11078;SDS011;5592;49.234;7.268;2022-10-26T08:06:28;3.43;;;2.37;;
11078;SDS011;5592;49.234;7.268;2022-10-26T08:08:53;6.40;;;2.83;;
11078;SDS011;5592;49.234;7.268;2022-10-26T08:11:19;10.70;;;3.63;;
11078;SDS011;5592;49.234;7.268;2022-10-26T08:13:45;5.20;;;2.13;;
11078;SDS011;5592;49.234;7.268;2022-10-26T08:16:10;9.73;;;3.03;;
11078;SDS011;5592;49.234;7.268;2022-10-26T08:18:36;4.03;;;2.10;;
11078;SDS011;5592;49.234;7.268;2022-10-26T08:21:03;5.90;;;2.23;;
11078;SDS011;5592;49.234;7.268;2022-10-26T08:23:31;6.60;;;2.20;;
11078;SDS011;5592;49.234;7.268;2022-10-26T08:25:57;5.60;;;2.40;;
11078;SDS011;5592;49.234;7.268;2022-10-26T08:28:23;8.73;;;2.70;;
11078;SDS011;5592;49.234;7.268;2022-10-26T08:30:49;7.97;;;2.70;;
11078;SDS011;5592;49.234;7.268;2022-10-26T08:33:15;6.53;;;2.70;;
11078;SDS011;5592;49.234;7.268;2022-10-26T08:35:40;2.90;;;2.30;;
11078;SDS011;5592;49.234;7.268;2022-10-26T08:38:06;4.10;;;2.23;;
11078;SDS011;5592;49.234;7.268;2022-10-26T08:40:33;9.47;;;3.73;;
11078;SDS011;5592;49.234;7.268;2022-10-26T08:43:03;5.83;;;1.93;;
11078;SDS011;5592;49.234;7.268;2022-10-26T08:45:52;7.97;;;2.17;;
11078;SDS011;5592;49.234;7.268;2022-10-26T08:48:31;16.10;;;3.03;;
11078;SDS011;5592;49.234;7.268;2022-10-26T08:51:40;9.03;;;2.60;;
11078;SDS011;5592;49.234;7.268;2022-10-26T08:56:41;6.23;;;2.20;;
11078;SDS011;5592;49.234;7.268;2022-10-26T09:01:50;4.87;;;2.40;;
11078;SDS011;5592;49.234;7.268;2022-10-26T09:04:16;3.67;;;2.37;;
11078;SDS011;5592;49.234;7.268;2022-10-26T09:06:54;8.50;;;2.50;;
11078;SDS011;5592;49.234;7.268;2022-10-26T09:09:29;14.00;;;2.47;;
11078;SDS011;5592;49.234;7.268;2022-10-26T09:12:26;3.13;;;1.97;;
11078;SDS011;5592;49.234;7.268;2022-10-26T09:15:09;6.53;;;2.63;;
11078;SDS011;5592;49.234;7.268;2022-10-26T09:17:56;6.10;;;2.20;;
11078;SDS011;5592;49.234;7.268;2022-10-26T09:20:40;7.77;;;2.00;;
11078;SDS011;5592;49.234;7.268;2022-10-26T09:25:58;7.47;;;2.57;;
11078;SDS011;5592;49.234;7.268;2022-10-26T09:28:26;9.90;;;2.80;;
11078;SDS011;5592;49.234;7.268;2022-10-26T09:30:54;3.60;;;1.90;;
11078;SDS011;5592;49.234;7.268;2022-10-26T09:33:23;5.13;;;1.93;;
11078;SDS011;5592;49.234;7.268;2022-10-26T09:35:51;5.63;;;2.23;;
11078;SDS011;5592;49.234;7.268;2022-10-26T09:38:27;3.87;;;2.37;;
11078;SDS011;5592;49.234;7.268;2022-10-26T09:46:12;8.33;;;2.53;;
11078;SDS011;5592;49.234;7.268;2022-10-26T09:48:47;4.83;;;2.40;;
11078;SDS011;5592;49.234;7.268;2022-10-26T09:51:17;5.53;;;2.00;;
11078;SDS011;5592;49.234;7.268;2022-10-26T09:53:43;4.37;;;2.17;;
11078;SDS011;5592;49.234;7.268;2022-10-26T09:56:10;5.73;;;2.83;;
11078;SDS011;5592;49.234;7.268;2022-10-26T09:58:49;7.90;;;2.30;;
11078;SDS011;5592;49.234;7.268;2022-10-26T10:06:40;4.77;;;2.50;;
11078;SDS011;5592;49.234;7.268;2022-10-26T10:09:14;8.30;;;2.50;;
11078;SDS011;5592;49.234;7.268;2022-10-26T10:11:54;5.40;;;2.40;;
11078;SDS011;5592;49.234;7.268;2022-10-26T10:16:54;6.83;;;2.50;;
11078;SDS011;5592;49.234;7.268;2022-10-26T10:19:30;4.40;;;2.37;;
11078;SDS011;5592;49.234;7.268;2022-10-26T10:22:07;5.50;;;2.47;;
11078;SDS011;5592;49.234;7.268;2022-10-26T10:24:36;8.93;;;2.07;;
11078;SDS011;5592;49.234;7.268;2022-10-26T10:29:40;5.73;;;2.10;;
11078;SDS011;5592;49.234;7.268;2022-10-26T10:32:11;7.50;;;2.30;;
11078;SDS011;5592;49.234;7.268;2022-10-26T10:34:40;7.10;;;2.03;;
11078;SDS011;5592;49.234;7.268;2022-10-26T10:37:12;6.80;;;2.17;;
11078;SDS011;5592;49.234;7.268;2022-10-26T10:39:47;7.90;;;2.20;;
11078;SDS011;5592;49.234;7.268;2022-10-26T10:42:17;11.13;;;2.70;;
11078;SDS011;5592;49.234;7.268;2022-10-26T10:44:49;4.97;;;2.13;;
11078;SDS011;5592;49.234;7.268;2022-10-26T10:47:27;4.50;;;2.00;;
11078;SDS011;5592;49.234;7.268;2022-10-26T10:50:10;5.27;;;2.23;;
11078;SDS011;5592;49.234;7.268;2022-10-26T10:52:42;5.67;;;2.40;;
11078;SDS011;5592;49.234;7.268;2022-10-26T11:00:35;8.33;;;1.97;;
11078;SDS011;5592;49.234;7.268;2022-10-26T11:03:16;5.93;;;2.30;;
11078;SDS011;5592;49.234;7.268;2022-10-26T11:08:43;7.20;;;2.60;;
11078;SDS011;5592;49.234;7.268;2022-10-26T11:11:16;5.37;;;1.97;;
11078;SDS011;5592;49.234;7.268;2022-10-26T11:13:46;6.00;;;2.77;;
11078;SDS011;5592;49.234;7.268;2022-10-26T11:16:20;4.50;;;2.40;;
11078;SDS011;5592;49.234;7.268;2022-10-26T11:18:54;5.50;;;2.10;;
11078;SDS011;5592;49.234;7.268;2022-10-26T11:21:27;5.83;;;2.17;;
11078;SDS011;5592;49.234;7.268;2022-10-26T11:31:44;4.70;;;2.00;;
11078;SDS011;5592;49.234;7.268;2022-10-26T11:34:19;7.07;;;1.80;;
11078;SDS011;5592;49.234;7.268;2022-10-26T11:36:49;7.00;;;1.90;;
11078;SDS011;5592;49.234;7.268;2022-10-26T11:41:50;5.20;;;2.20;;
11078;SDS011;5592;49.234;7.268;2022-10-26T11:44:22;5.67;;;2.00;;
11078;SDS011;5592;49.234;7.268;2022-10-26T11:47:02;3.70;;;1.60;;
11078;SDS011;5592;49.234;7.268;2022-10-26T11:49:51;6.17;;;2.10;;
11078;SDS011;5592;49.234;7.268;2022-10-26T11:52:28;2.33;;;1.83;;
11078;SDS011;5592;49.234;7.268;2022-10-26T11:55:06;7.80;;;2.20;;
11078;SDS011;5592;49.234;7.268;2022-10-26T11:57:35;4.77;;;1.70;;
11078;SDS011;5592;49.234;7.268;2022-10-26T12:02:57;5.30;;;2.10;;
11078;SDS011;5592;49.234;7.268;2022-10-26T12:05:47;4.83;;;2.13;;
11078;SDS011;5592;49.234;7.268;2022-10-26T12:08:23;2.90;;;1.80;;
11078;SDS011;5592;49.234;7.268;2022-10-26T12:20:00;7.17;;;1.93;;
11078;SDS011;5592;49.234;7.268;2022-10-26T12:22:32;5.90;;;1.83;;
11078;SDS011;5592;49.234;7.268;2022-10-26T12:27:31;5.80;;;1.77;;
11078;SDS011;5592;49.234;7.268;2022-10-26T12:37:54;4.03;;;1.63;;
11078;SDS011;5592;49.234;7.268;2022-10-26T12:40:42;3.37;;;1.73;;
11078;SDS011;5592;49.234;7.268;2022-10-26T12:45:38;2.67;;;1.67;;
11078;SDS011;5592;49.234;7.268;2022-10-26T12:48:19;4.40;;;1.87;;
11078;SDS011;5592;49.234;7.268;2022-10-26T12:50:48;6.30;;;1.80;;
11078;SDS011;5592;49.234;7.268;2022-10-26T12:53:16;3.70;;;1.63;;
11078;SDS011;5592;49.234;7.268;2022-10-26T12:58:27;3.83;;;2.07;;
11078;SDS011;5592;49.234;7.268;2022-10-26T13:03:32;4.27;;;1.90;;
11078;SDS011;5592;49.234;7.268;2022-10-26T13:06:35;5.17;;;1.90;;
11078;SDS011;5592;49.234;7.268;2022-10-26T13:09:19;5.33;;;1.83;;
11078;SDS011;5592;49.234;7.268;2022-10-26T13:11:47;4.80;;;1.60;;
11078;SDS011;5592;49.234;7.268;2022-10-26T13:14:20;7.50;;;1.90;;
11078;SDS011;5592;49.234;7.268;2022-10-26T13:16:46;7.47;;;1.70;;
11078;SDS011;5592;49.234;7.268;2022-10-26T13:19:26;2.80;;;1.40;;
11078;SDS011;5592;49.234;7.268;2022-10-26T13:21:58;2.43;;;1.40;;
11078;SDS011;5592;49.234;7.268;2022-10-26T13:24:29;3.93;;;1.80;;
11078;SDS011;5592;49.234;7.268;2022-10-26T13:30:20;3.57;;;1.37;;
11078;SDS011;5592;49.234;7.268;2022-10-26T13:32:35;8.67;;;1.57;;
11078;SDS011;5592;49.234;7.268;2022-10-26T13:35:03;5.00;;;2.13;;
11078;SDS011;5592;49.234;7.268;2022-10-26T13:37:30;3.70;;;1.80;;
11078;SDS011;5592;49.234;7.268;2022-10-26T13:39:58;7.53;;;2.10;;
11078;SDS011;5592;49.234;7.268;2022-10-26T13:42:32;3.30;;;1.87;;
11078;SDS011;5592;49.234;7.268;2022-10-26T13:50:53;4.80;;;1.60;;
11078;SDS011;5592;49.234;7.268;2022-10-26T13:55:52;5.80;;;1.90;;
11078;SDS011;5592;49.234;7.268;2022-10-26T13:58:28;4.53;;;1.70;;
11078;SDS011;5592;49.234;7.268;2022-10-26T14:01:02;2.17;;;1.37;;
11078;SDS011;5592;49.234;7.268;2022-10-26T14:03:28;3.63;;;1.40;;
11078;SDS011;5592;49.234;7.268;2022-10-26T14:05:54;3.90;;;1.37;;
11078;SDS011;5592;49.234;7.268;2022-10-26T14:08:20;4.17;;;1.73;;
11078;SDS011;5592;49.234;7.268;2022-10-26T14:10:47;5.00;;;1.60;;
11078;SDS011;5592;49.234;7.268;2022-10-26T14:13:22;9.17;;;1.40;;
11078;SDS011;5592;49.234;7.268;2022-10-26T14:15:51;7.20;;;1.20;;
11078;SDS011;5592;49.234;7.268;2022-10-26T14:18:24;1.47;;;1.10;;
11078;SDS011;5592;49.234;7.268;2022-10-26T14:20:55;5.13;;;1.30;;
11078;SDS011;5592;49.234;7.268;2022-10-26T14:23:36;5.63;;;1.30;;
11078;SDS011;5592;49.234;7.268;2022-10-26T14:29:18;3.30;;;1.30;;
11078;SDS011;5592;49.234;7.268;2022-10-26T14:31:46;2.13;;;1.30;;
11078;SDS011;5592;49.234;7.268;2022-10-26T14:34:13;4.10;;;1.30;;
11078;SDS011;5592;49.234;7.268;2022-10-26T14:36:50;5.40;;;1.60;;
11078;SDS011;5592;49.234;7.268;2022-10-26T14:39:38;3.20;;;1.70;;
11078;SDS011;5592;49.234;7.268;2022-10-26T14:42:29;3.70;;;1.63;;
11078;SDS011;5592;49.234;7.268;2022-10-26T14:45:04;2.90;;;1.27;;
11078;SDS011;5592;49.234;7.268;2022-10-26T14:47:31;3.97;;;1.53;;
11078;SDS011;5592;49.234;7.268;2022-10-26T14:49:59;1.60;;;1.20;;
11078;SDS011;5592;49.234;7.268;2022-10-26T14:52:26;5.10;;;1.10;;
11078;SDS011;5592;49.234;7.268;2022-10-26T14:54:56;4.67;;;1.43;;
11078;SDS011;5592;49.234;7.268;2022-10-26T14:57:38;4.83;;;1.70;;
11078;SDS011;5592;49.234;7.268;2022-10-26T15:00:15;2.40;;;1.30;;
11078;SDS011;5592;49.234;7.268;2022-10-26T15:02:44;5.40;;;1.90;;
11078;SDS011;5592;49.234;7.268;2022-10-26T15:07:54;4.37;;;1.40;;
11078;SDS011;5592;49.234;7.268;2022-10-26T15:13:10;5.70;;;1.97;;
11078;SDS011;5592;49.234;7.268;2022-10-26T15:15:46;6.33;;;2.20;;
11078;SDS011;5592;49.234;7.268;2022-10-26T15:18:18;5.43;;;2.10;;
11078;SDS011;5592;49.234;7.268;2022-10-26T15:20:48;5.03;;;1.90;;
11078;SDS011;5592;49.234;7.268;2022-10-26T15:23:15;5.87;;;1.80;;
11078;SDS011;5592;49.234;7.268;2022-10-26T15:25:58;3.57;;;2.13;;
11078;SDS011;5592;49.234;7.268;2022-10-26T15:28:30;5.60;;;1.73;;
11078;SDS011;5592;49.234;7.268;2022-10-26T15:31:04;8.93;;;2.10;;
11078;SDS011;5592;49.234;7.268;2022-10-26T15:38:45;4.93;;;2.00;;
11078;SDS011;5592;49.234;7.268;2022-10-26T15:43:50;2.93;;;2.00;;
11078;SDS011;5592;49.234;7.268;2022-10-26T15:46:17;3.67;;;1.97;;
11078;SDS011;5592;49.234;7.268;2022-10-26T15:48:45;3.37;;;1.70;;
11078;SDS011;5592;49.234;7.268;2022-10-26T15:51:18;6.20;;;2.30;;
11078;SDS011;5592;49.234;7.268;2022-10-26T15:53:44;2.97;;;1.70;;
11078;SDS011;5592;49.234;7.268;2022-10-26T15:56:16;8.17;;;1.97;;
11078;SDS011;5592;49.234;7.268;2022-10-26T15:58:44;5.93;;;2.30;;
11078;SDS011;5592;49.234;7.268;2022-10-26T16:01:20;8.30;;;2.80;;
11078;SDS011;5592;49.234;7.268;2022-10-26T16:03:48;5.73;;;1.90;;
11078;SDS011;5592;49.234;7.268;2022-10-26T16:08:50;5.10;;;2.30;;
11078;SDS011;5592;49.234;7.268;2022-10-26T16:11:17;4.00;;;2.07;;
11078;SDS011;5592;49.234;7.268;2022-10-26T16:13:43;2.60;;;2.00;;
11078;SDS011;5592;49.234;7.268;2022-10-26T16:16:12;7.40;;;2.60;;
11078;SDS011;5592;49.234;7.268;2022-10-26T16:18:40;6.80;;;2.60;;
11078;SDS011;5592;49.234;7.268;2022-10-26T16:21:09;7.43;;;2.43;;
11078;SDS011;5592;49.234;7.268;2022-10-26T16:23:36;6.20;;;2.57;;
11078;SDS011;5592;49.234;7.268;2022-10-26T16:26:02;8.20;;;3.03;;
11078;SDS011;5592;49.234;7.268;2022-10-26T16:28:28;10.73;;;3.30;;
11078;SDS011;5592;49.234;7.268;2022-10-26T16:30:58;4.97;;;2.77;;
11078;SDS011;5592;49.234;7.268;2022-10-26T16:33:28;3.90;;;3.03;;
11078;SDS011;5592;49.234;7.268;2022-10-26T16:35:56;8.73;;;3.23;;
11078;SDS011;5592;49.234;7.268;2022-10-26T16:38:23;6.20;;;3.53;;
11078;SDS011;5592;49.234;7.268;2022-10-26T16:40:58;15.20;;;3.60;;
11078;SDS011;5592;49.234;7.268;2022-10-26T16:43:32;10.93;;;3.17;;
11078;SDS011;5592;49.234;7.268;2022-10-26T16:46:03;5.77;;;3.40;;
11078;SDS011;5592;49.234;7.268;2022-10-26T16:48:30;14.30;;;3.40;;
11078;SDS011;5592;49.234;7.268;2022-10-26T16:50:56;9.73;;;3.30;;
11078;SDS011;5592;49.234;7.268;2022-10-26T16:53:22;6.77;;;3.40;;
11078;SDS011;5592;49.234;7.268;2022-10-26T16:55:48;4.27;;;2.60;;
11078;SDS011;5592;49.234;7.268;2022-10-26T16:58:14;11.17;;;3.70;;
11078;SDS011;5592;49.234;7.268;2022-10-26T17:00:39;4.93;;;3.33;;
11078;SDS011;5592;49.234;7.268;2022-10-26T17:03:05;8.87;;;3.90;;
11078;SDS011;5592;49.234;7.268;2022-10-26T17:05:30;6.20;;;3.53;;
11078;SDS011;5592;49.234;7.268;2022-10-26T17:07:56;4.97;;;3.20;;
11078;SDS011;5592;49.234;7.268;2022-10-26T17:10:21;8.27;;;4.17;;
11078;SDS011;5592;49.234;7.268;2022-10-26T17:12:47;5.50;;;2.70;;
11078;SDS011;5592;49.234;7.268;2022-10-26T17:15:13;7.40;;;2.87;;
11078;SDS011;5592;49.234;7.268;2022-10-26T17:17:38;4.10;;;2.30;;
11078;SDS011;5592;49.234;7.268;2022-10-26T17:20:04;5.70;;;3.27;;
11078;SDS011;5592;49.234;7.268;2022-10-26T17:22:30;12.90;;;3.10;;
11078;SDS011;5592;49.234;7.268;2022-10-26T17:24:56;12.67;;;3.00;;
11078;SDS011;5592;49.234;7.268;2022-10-26T17:27:22;11.63;;;3.07;;
11078;SDS011;5592;49.234;7.268;2022-10-26T17:29:48;4.90;;;3.37;;
11078;SDS011;5592;49.234;7.268;2022-10-26T17:32:14;6.90;;;3.20;;
11078;SDS011;5592;49.234;7.268;2022-10-26T17:34:40;6.13;;;3.63;;